QTR6AA VVTS-OTHH
Flight info
| Callsign | QTR6AA |
|---|---|
| Flight time | N/A |
| Altitude | 34000 |
| Route | SAPEN5F SAPEN R468 ELMOP P629 BKK L301 DWI M506 KAMKO L524 SANUG/N0496F360 L524 NNP N895 AAE L639 RASKI L301 VAXIM/N0490F380 L301 RAGMA N571 MENSA DCT EGTAG Q576 RORON M430 TOSNA |
| Aircraft | B77W/H-SDE1E2E3FGHIJ2J3J4J5M1RWXY/LB1D1 |
Departure
| Time | N/A |
|---|---|
| Airport | Tan Son Nhat International Airport (VVTS) |
Arrival
| Time | 2026-05-05 14:08 |
|---|---|
| Airport | Hamad International Airport (OTHH) |
| Time | Latitude | Longitude | Altitude | Speed | Heading |
|---|---|---|---|---|---|
| 2026-05-05 07:15 | 11.20649 | 105.39771 | 28233 ft | 504 kts | 285° |
| 2026-05-05 07:15 | 11.21603 | 105.36331 | 28550 ft | 505 kts | 285° |
| 2026-05-05 07:16 | 11.22561 | 105.32878 | 28820 ft | 507 kts | 285° |
| 2026-05-05 07:16 | 11.23508 | 105.29459 | 29058 ft | 510 kts | 285° |
| 2026-05-05 07:16 | 11.24473 | 105.25978 | 29366 ft | 510 kts | 285° |
| 2026-05-05 07:16 | 11.25434 | 105.22507 | 29776 ft | 508 kts | 285° |
| 2026-05-05 07:17 | 11.26391 | 105.19048 | 30151 ft | 506 kts | 285° |
| 2026-05-05 07:17 | 11.27344 | 105.15606 | 30504 ft | 504 kts | 285° |
| 2026-05-05 07:17 | 11.28294 | 105.12168 | 30834 ft | 503 kts | 285° |
| 2026-05-05 07:17 | 11.29241 | 105.08741 | 31152 ft | 503 kts | 285° |
| 2026-05-05 07:18 | 11.30187 | 105.05315 | 31489 ft | 501 kts | 285° |
| 2026-05-05 07:18 | 11.31116 | 105.01947 | 31822 ft | 500 kts | 285° |
| 2026-05-05 07:18 | 11.32055 | 104.98544 | 32163 ft | 499 kts | 285° |
| 2026-05-05 07:18 | 11.32993 | 104.95149 | 32512 ft | 497 kts | 285° |
| 2026-05-05 07:19 | 11.34085 | 104.91808 | 32828 ft | 497 kts | 291° |
| 2026-05-05 07:19 | 11.35480 | 104.88591 | 33140 ft | 497 kts | 296° |
| 2026-05-05 07:19 | 11.37171 | 104.85522 | 33434 ft | 496 kts | 302° |
| 2026-05-05 07:19 | 11.39018 | 104.82556 | 33714 ft | 496 kts | 302° |
| 2026-05-05 07:20 | 11.40884 | 104.79585 | 33782 ft | 499 kts | 302° |
| 2026-05-05 07:20 | 11.44586 | 104.73659 | 33829 ft | 497 kts | 302° |
| 2026-05-05 07:21 | 11.48249 | 104.67721 | 33829 ft | 493 kts | 302° |
| 2026-05-05 07:21 | 11.51882 | 104.61799 | 33839 ft | 492 kts | 301° |
| 2026-05-05 07:22 | 11.55505 | 104.55886 | 33838 ft | 492 kts | 302° |
| 2026-05-05 07:22 | 11.59132 | 104.49968 | 33844 ft | 493 kts | 302° |
| 2026-05-05 07:23 | 11.62747 | 104.44067 | 33844 ft | 494 kts | 302° |
| 2026-05-05 07:23 | 11.66393 | 104.38113 | 33843 ft | 495 kts | 302° |
| 2026-05-05 07:24 | 11.70046 | 104.32143 | 33849 ft | 496 kts | 302° |
| 2026-05-05 07:24 | 11.73703 | 104.26161 | 33847 ft | 497 kts | 302° |
| 2026-05-05 07:25 | 11.77341 | 104.20210 | 33848 ft | 497 kts | 301° |
| 2026-05-05 07:25 | 11.80987 | 104.14210 | 33853 ft | 497 kts | 301° |
| 2026-05-05 07:26 | 11.84613 | 104.08194 | 33856 ft | 498 kts | 301° |
| 2026-05-05 07:26 | 11.88244 | 104.02173 | 33864 ft | 498 kts | 301° |
| 2026-05-05 07:27 | 11.91879 | 103.96154 | 33864 ft | 498 kts | 301° |
| 2026-05-05 07:27 | 11.95510 | 103.90190 | 33864 ft | 498 kts | 301° |
| 2026-05-05 07:28 | 11.99167 | 103.84192 | 33866 ft | 497 kts | 301° |
| 2026-05-05 07:28 | 12.02816 | 103.78197 | 33864 ft | 497 kts | 301° |
| 2026-05-05 07:29 | 12.06458 | 103.72202 | 33875 ft | 496 kts | 301° |
| 2026-05-05 07:29 | 12.10095 | 103.66211 | 33869 ft | 496 kts | 301° |
| 2026-05-05 07:30 | 12.13703 | 103.60265 | 33873 ft | 496 kts | 301° |
| 2026-05-05 07:30 | 12.19146 | 103.51290 | 33871 ft | 495 kts | 301° |
| 2026-05-05 07:31 | 12.22770 | 103.45309 | 33875 ft | 494 kts | 301° |
| 2026-05-05 07:31 | 12.26363 | 103.39374 | 33863 ft | 494 kts | 301° |
| 2026-05-05 07:32 | 12.29988 | 103.33383 | 33877 ft | 499 kts | 301° |
| 2026-05-05 07:32 | 12.33657 | 103.27315 | 33874 ft | 505 kts | 301° |
| 2026-05-05 07:33 | 12.37156 | 103.21057 | 33857 ft | 509 kts | 296° |
| 2026-05-05 07:33 | 12.40325 | 103.14556 | 33879 ft | 512 kts | 295° |
| 2026-05-05 07:34 | 12.43459 | 103.08051 | 33873 ft | 514 kts | 296° |
| 2026-05-05 07:34 | 12.46665 | 103.01515 | 33848 ft | 514 kts | 296° |
| 2026-05-05 07:35 | 12.49893 | 102.94996 | 33860 ft | 513 kts | 296° |
| 2026-05-05 07:35 | 12.53120 | 102.88482 | 33855 ft | 512 kts | 296° |
| 2026-05-05 07:36 | 12.56311 | 102.82029 | 33857 ft | 511 kts | 296° |
| 2026-05-05 07:36 | 12.59516 | 102.75538 | 33859 ft | 510 kts | 296° |
| 2026-05-05 07:37 | 12.62711 | 102.69064 | 33855 ft | 509 kts | 296° |
| 2026-05-05 07:37 | 12.65895 | 102.62605 | 33851 ft | 508 kts | 296° |
| 2026-05-05 07:38 | 12.69074 | 102.56154 | 33859 ft | 507 kts | 296° |
| 2026-05-05 07:38 | 12.72227 | 102.49749 | 33858 ft | 507 kts | 296° |
| 2026-05-05 07:39 | 12.75399 | 102.43301 | 33857 ft | 507 kts | 296° |
| 2026-05-05 07:39 | 12.78569 | 102.36852 | 33871 ft | 506 kts | 296° |
| 2026-05-05 07:40 | 12.82082 | 102.30607 | 33858 ft | 506 kts | 302° |
| 2026-05-05 07:40 | 12.85933 | 102.24638 | 33869 ft | 505 kts | 303° |
| 2026-05-05 07:41 | 12.89801 | 102.18643 | 33856 ft | 504 kts | 302° |
| 2026-05-05 07:41 | 12.93618 | 102.12638 | 33865 ft | 502 kts | 302° |
| 2026-05-05 07:42 | 12.97412 | 102.06625 | 33863 ft | 502 kts | 302° |
| 2026-05-05 07:42 | 13.01197 | 102.00617 | 33860 ft | 501 kts | 302° |
| 2026-05-05 07:43 | 13.04952 | 101.94656 | 33865 ft | 501 kts | 302° |
| 2026-05-05 07:43 | 13.08732 | 101.88654 | 33864 ft | 501 kts | 302° |
| 2026-05-05 07:44 | 13.12513 | 101.82649 | 33863 ft | 501 kts | 302° |
| 2026-05-05 07:44 | 13.16297 | 101.76635 | 33862 ft | 502 kts | 302° |
| 2026-05-05 07:45 | 13.20056 | 101.70656 | 33859 ft | 502 kts | 302° |
| 2026-05-05 07:45 | 13.23840 | 101.64631 | 33864 ft | 503 kts | 302° |
| 2026-05-05 07:46 | 13.27627 | 101.58600 | 33863 ft | 503 kts | 302° |
| 2026-05-05 07:46 | 13.31414 | 101.52565 | 33858 ft | 503 kts | 302° |
| 2026-05-05 07:47 | 13.35172 | 101.46570 | 33861 ft | 503 kts | 302° |
| 2026-05-05 07:47 | 13.38953 | 101.40535 | 33857 ft | 502 kts | 302° |
| 2026-05-05 07:48 | 13.42733 | 101.34497 | 33857 ft | 502 kts | 302° |
| 2026-05-05 07:48 | 13.46508 | 101.28463 | 33850 ft | 502 kts | 302° |
| 2026-05-05 07:49 | 13.50277 | 101.22435 | 33854 ft | 501 kts | 302° |
| 2026-05-05 07:49 | 13.54012 | 101.16457 | 33853 ft | 500 kts | 302° |
| 2026-05-05 07:50 | 13.57768 | 101.10441 | 33854 ft | 500 kts | 302° |
| 2026-05-05 07:50 | 13.61520 | 101.04427 | 33861 ft | 500 kts | 302° |
| 2026-05-05 07:51 | 13.65276 | 100.98402 | 33844 ft | 501 kts | 302° |
| 2026-05-05 07:51 | 13.69011 | 100.92406 | 33838 ft | 502 kts | 302° |
| 2026-05-05 07:52 | 13.72777 | 100.86359 | 33833 ft | 502 kts | 302° |
| 2026-05-05 07:52 | 13.76544 | 100.80302 | 33830 ft | 503 kts | 302° |
| 2026-05-05 07:53 | 13.80311 | 100.74242 | 33831 ft | 503 kts | 302° |
| 2026-05-05 07:53 | 13.84079 | 100.68176 | 33833 ft | 503 kts | 302° |
| 2026-05-05 07:54 | 13.87641 | 100.62046 | 33820 ft | 503 kts | 294° |
| 2026-05-05 07:54 | 13.89825 | 100.55231 | 33832 ft | 503 kts | 282° |
| 2026-05-05 07:55 | 13.90667 | 100.48088 | 33842 ft | 503 kts | 276° |
| 2026-05-05 07:55 | 13.91300 | 100.40913 | 33840 ft | 504 kts | 276° |
| 2026-05-05 07:56 | 13.91967 | 100.33777 | 33842 ft | 504 kts | 276° |
| 2026-05-05 07:56 | 13.92673 | 100.26590 | 33849 ft | 505 kts | 276° |
| 2026-05-05 07:57 | 13.93385 | 100.19406 | 33852 ft | 505 kts | 276° |
| 2026-05-05 07:57 | 13.94094 | 100.12223 | 33843 ft | 504 kts | 276° |
| 2026-05-05 07:58 | 13.94797 | 100.05051 | 33843 ft | 503 kts | 276° |
| 2026-05-05 07:58 | 13.95492 | 99.97939 | 33843 ft | 503 kts | 276° |
| 2026-05-05 07:59 | 13.96189 | 99.90784 | 33839 ft | 502 kts | 276° |
| 2026-05-05 07:59 | 13.96882 | 99.83634 | 33840 ft | 502 kts | 276° |
| 2026-05-05 08:00 | 13.97574 | 99.76489 | 33842 ft | 501 kts | 276° |
| 2026-05-05 08:00 | 13.98258 | 99.69405 | 33841 ft | 500 kts | 276° |
| 2026-05-05 08:01 | 13.98943 | 99.62286 | 33834 ft | 500 kts | 276° |
| 2026-05-05 08:01 | 13.99625 | 99.55168 | 33836 ft | 499 kts | 276° |
| 2026-05-05 08:02 | 14.00307 | 99.48054 | 33833 ft | 500 kts | 276° |
| 2026-05-05 08:02 | 14.00993 | 99.40981 | 33835 ft | 500 kts | 276° |
| 2026-05-05 08:03 | 14.01685 | 99.33859 | 33841 ft | 500 kts | 276° |
| 2026-05-05 08:03 | 14.02374 | 99.26739 | 33844 ft | 500 kts | 276° |
| 2026-05-05 08:04 | 14.03054 | 99.19656 | 33843 ft | 500 kts | 276° |
| 2026-05-05 08:04 | 14.03738 | 99.12526 | 33844 ft | 500 kts | 276° |
| 2026-05-05 08:05 | 14.04420 | 99.05391 | 33854 ft | 501 kts | 276° |
| 2026-05-05 08:05 | 14.05100 | 98.98255 | 33850 ft | 501 kts | 276° |
| 2026-05-05 08:06 | 14.05668 | 98.91105 | 33856 ft | 501 kts | 274° |
| 2026-05-05 08:06 | 14.06096 | 98.83987 | 33851 ft | 502 kts | 274° |
| 2026-05-05 08:07 | 14.06531 | 98.76818 | 33858 ft | 502 kts | 274° |
| 2026-05-05 08:07 | 14.06989 | 98.69647 | 33859 ft | 502 kts | 274° |
| 2026-05-05 08:08 | 14.07453 | 98.62476 | 33862 ft | 502 kts | 274° |
| 2026-05-05 08:08 | 14.07911 | 98.55354 | 33859 ft | 502 kts | 274° |
| 2026-05-05 08:09 | 14.08368 | 98.48190 | 33858 ft | 501 kts | 274° |
| 2026-05-05 08:09 | 14.08822 | 98.41027 | 33860 ft | 501 kts | 274° |
| 2026-05-05 08:10 | 14.09275 | 98.33863 | 33845 ft | 501 kts | 274° |
| 2026-05-05 08:10 | 14.09725 | 98.26747 | 33852 ft | 501 kts | 275° |
| 2026-05-05 08:11 | 14.11094 | 98.19742 | 33857 ft | 499 kts | 289° |
| 2026-05-05 08:11 | 14.13828 | 98.13191 | 33852 ft | 498 kts | 298° |
| 2026-05-05 08:12 | 14.17128 | 98.06910 | 33852 ft | 499 kts | 299° |
| 2026-05-05 08:12 | 14.20439 | 98.00616 | 33840 ft | 499 kts | 298° |
| 2026-05-05 08:13 | 14.23692 | 97.94346 | 33848 ft | 500 kts | 298° |
| 2026-05-05 08:13 | 14.26951 | 97.88011 | 33841 ft | 500 kts | 298° |
| 2026-05-05 08:14 | 14.30204 | 97.81675 | 33841 ft | 500 kts | 298° |
| 2026-05-05 08:14 | 14.33457 | 97.75338 | 33841 ft | 500 kts | 298° |
| 2026-05-05 08:15 | 14.36710 | 97.68998 | 33841 ft | 500 kts | 298° |
| 2026-05-05 08:15 | 14.39940 | 97.62700 | 33840 ft | 500 kts | 298° |
| 2026-05-05 08:16 | 14.43189 | 97.56358 | 33837 ft | 500 kts | 298° |
| 2026-05-05 08:16 | 14.46436 | 97.50017 | 33844 ft | 500 kts | 298° |
| 2026-05-05 08:17 | 14.49679 | 97.43676 | 33841 ft | 500 kts | 298° |
| 2026-05-05 08:17 | 14.52899 | 97.37376 | 33841 ft | 500 kts | 298° |
| 2026-05-05 08:18 | 14.56142 | 97.31027 | 33841 ft | 500 kts | 298° |
| 2026-05-05 08:18 | 14.59381 | 97.24680 | 33841 ft | 500 kts | 298° |
| 2026-05-05 08:19 | 14.62618 | 97.18330 | 33841 ft | 500 kts | 298° |
| 2026-05-05 08:19 | 14.65833 | 97.12021 | 33844 ft | 500 kts | 298° |
| 2026-05-05 08:20 | 14.69067 | 97.05667 | 33844 ft | 500 kts | 298° |
| 2026-05-05 08:20 | 14.72300 | 96.99310 | 33844 ft | 500 kts | 298° |
| 2026-05-05 08:21 | 14.75534 | 96.92946 | 33844 ft | 500 kts | 298° |
| 2026-05-05 08:21 | 14.78742 | 96.86627 | 33844 ft | 500 kts | 298° |
| 2026-05-05 08:22 | 14.81969 | 96.80266 | 33842 ft | 500 kts | 297° |
| 2026-05-05 08:22 | 14.85197 | 96.73898 | 33843 ft | 500 kts | 297° |
| 2026-05-05 08:23 | 14.87878 | 96.68606 | 33847 ft | 500 kts | 297° |
| 2026-05-05 08:23 | 14.91103 | 96.62233 | 33847 ft | 500 kts | 297° |
| 2026-05-05 08:24 | 14.94846 | 96.54831 | 33847 ft | 500 kts | 297° |
| 2026-05-05 08:24 | 14.98066 | 96.48457 | 33846 ft | 500 kts | 297° |
| 2026-05-05 08:25 | 15.00739 | 96.43163 | 33844 ft | 500 kts | 297° |
| 2026-05-05 08:25 | 15.03958 | 96.36781 | 33848 ft | 500 kts | 297° |
| 2026-05-05 08:26 | 15.07173 | 96.30401 | 33847 ft | 500 kts | 297° |
| 2026-05-05 08:26 | 15.10391 | 96.24010 | 33846 ft | 501 kts | 297° |
| 2026-05-05 08:27 | 15.13584 | 96.17664 | 33846 ft | 501 kts | 297° |
| 2026-05-05 08:27 | 15.16799 | 96.11267 | 33847 ft | 501 kts | 297° |
| 2026-05-05 08:28 | 15.20013 | 96.04869 | 33849 ft | 501 kts | 297° |
| 2026-05-05 08:28 | 15.23225 | 95.98468 | 33849 ft | 501 kts | 297° |
| 2026-05-05 08:29 | 15.26434 | 95.92067 | 33849 ft | 501 kts | 297° |
| 2026-05-05 08:30 | 15.31223 | 95.82506 | 33849 ft | 501 kts | 297° |
| 2026-05-05 08:30 | 15.34428 | 95.76098 | 33850 ft | 501 kts | 297° |
| 2026-05-05 08:31 | 15.37630 | 95.69693 | 33847 ft | 501 kts | 297° |
| 2026-05-05 08:31 | 15.40828 | 95.63288 | 33848 ft | 500 kts | 297° |
| 2026-05-05 08:32 | 15.44003 | 95.56925 | 33846 ft | 500 kts | 297° |
| 2026-05-05 08:32 | 15.47197 | 95.50519 | 33846 ft | 500 kts | 297° |
| 2026-05-05 08:33 | 15.50389 | 95.44109 | 33846 ft | 500 kts | 297° |
| 2026-05-05 08:33 | 15.53578 | 95.37702 | 33850 ft | 500 kts | 297° |
| 2026-05-05 08:34 | 15.56745 | 95.31331 | 33852 ft | 500 kts | 297° |
| 2026-05-05 08:34 | 15.59929 | 95.24923 | 33847 ft | 500 kts | 297° |
| 2026-05-05 08:35 | 15.63109 | 95.18515 | 33846 ft | 499 kts | 297° |
| 2026-05-05 08:35 | 15.66281 | 95.12117 | 33846 ft | 498 kts | 296° |
| 2026-05-05 08:36 | 15.69449 | 95.05723 | 33847 ft | 498 kts | 296° |
| 2026-05-05 08:36 | 15.72591 | 94.99375 | 33849 ft | 498 kts | 296° |
| 2026-05-05 08:37 | 15.75752 | 94.92984 | 33849 ft | 498 kts | 296° |
| 2026-05-05 08:37 | 15.78910 | 94.86592 | 33849 ft | 497 kts | 296° |
| 2026-05-05 08:38 | 15.82065 | 94.80200 | 33849 ft | 497 kts | 296° |
| 2026-05-05 08:38 | 15.85195 | 94.73855 | 33850 ft | 497 kts | 296° |
| 2026-05-05 08:39 | 15.88342 | 94.67468 | 33844 ft | 497 kts | 296° |
| 2026-05-05 08:39 | 15.91488 | 94.61077 | 33843 ft | 497 kts | 296° |
| 2026-05-05 08:40 | 15.94629 | 94.54690 | 33853 ft | 496 kts | 296° |
| 2026-05-05 08:40 | 15.97749 | 94.48342 | 33848 ft | 497 kts | 296° |
| 2026-05-05 08:41 | 16.00888 | 94.41947 | 33853 ft | 497 kts | 296° |
| 2026-05-05 08:41 | 16.04025 | 94.35551 | 33849 ft | 497 kts | 296° |
| 2026-05-05 08:42 | 16.07159 | 94.29154 | 33850 ft | 497 kts | 296° |
| 2026-05-05 08:42 | 16.10273 | 94.22793 | 33854 ft | 497 kts | 296° |
| 2026-05-05 08:43 | 16.12965 | 94.16189 | 33859 ft | 495 kts | 290° |
| 2026-05-05 08:43 | 16.15347 | 94.09477 | 33855 ft | 494 kts | 289° |
| 2026-05-05 08:44 | 16.17724 | 94.02787 | 33859 ft | 492 kts | 290° |
| 2026-05-05 08:44 | 16.20115 | 93.96123 | 33858 ft | 491 kts | 290° |
| 2026-05-05 08:45 | 16.22496 | 93.89512 | 33858 ft | 491 kts | 290° |
| 2026-05-05 08:45 | 16.24892 | 93.82857 | 33857 ft | 491 kts | 290° |
| 2026-05-05 08:46 | 16.27282 | 93.76204 | 33857 ft | 491 kts | 290° |
| 2026-05-05 08:46 | 16.29671 | 93.69546 | 33857 ft | 491 kts | 290° |
| 2026-05-05 08:47 | 16.32059 | 93.62883 | 33860 ft | 491 kts | 290° |
| 2026-05-05 08:47 | 16.34429 | 93.56264 | 33859 ft | 491 kts | 290° |
| 2026-05-05 08:48 | 16.36814 | 93.49596 | 33860 ft | 491 kts | 290° |
| 2026-05-05 08:48 | 16.39194 | 93.42932 | 33858 ft | 491 kts | 290° |
| 2026-05-05 08:49 | 16.41572 | 93.36267 | 33858 ft | 491 kts | 290° |
| 2026-05-05 08:49 | 16.43933 | 93.29644 | 33857 ft | 491 kts | 290° |
| 2026-05-05 08:50 | 16.46306 | 93.22977 | 33859 ft | 491 kts | 290° |
| 2026-05-05 08:50 | 16.48678 | 93.16308 | 33859 ft | 491 kts | 290° |
| 2026-05-05 08:51 | 16.51048 | 93.09637 | 33859 ft | 491 kts | 290° |
| 2026-05-05 08:51 | 16.53415 | 93.02963 | 33863 ft | 491 kts | 290° |
| 2026-05-05 08:52 | 16.55764 | 92.96335 | 33862 ft | 491 kts | 290° |
| 2026-05-05 08:52 | 16.58126 | 92.89662 | 33864 ft | 491 kts | 290° |
| 2026-05-05 08:53 | 16.60488 | 92.82983 | 33875 ft | 492 kts | 290° |
| 2026-05-05 08:53 | 16.61672 | 92.79632 | 33993 ft | 493 kts | 290° |
| 2026-05-05 08:53 | 16.62855 | 92.76280 | 34194 ft | 492 kts | 290° |
| 2026-05-05 08:53 | 16.64034 | 92.72941 | 34429 ft | 490 kts | 290° |
| 2026-05-05 08:54 | 16.65192 | 92.69656 | 34651 ft | 489 kts | 290° |
| 2026-05-05 08:54 | 16.66363 | 92.66334 | 34852 ft | 488 kts | 290° |
| 2026-05-05 08:54 | 16.67533 | 92.63015 | 35065 ft | 487 kts | 290° |
| 2026-05-05 08:54 | 16.68698 | 92.59703 | 35263 ft | 486 kts | 289° |
| 2026-05-05 08:55 | 16.69862 | 92.56397 | 35482 ft | 485 kts | 289° |
| 2026-05-05 08:55 | 16.71019 | 92.53106 | 35776 ft | 482 kts | 289° |
| 2026-05-05 08:55 | 16.72171 | 92.49829 | 35801 ft | 480 kts | 289° |
| 2026-05-05 08:56 | 16.74429 | 92.43399 | 35858 ft | 472 kts | 289° |
| 2026-05-05 08:56 | 16.76681 | 92.36977 | 35865 ft | 471 kts | 289° |
| 2026-05-05 08:57 | 16.78931 | 92.30556 | 35866 ft | 471 kts | 289° |
| 2026-05-05 08:57 | 16.81179 | 92.24131 | 35869 ft | 472 kts | 289° |
| 2026-05-05 08:58 | 16.83415 | 92.17734 | 35867 ft | 473 kts | 289° |
| 2026-05-05 08:58 | 16.85667 | 92.11284 | 35867 ft | 473 kts | 289° |
| 2026-05-05 08:59 | 16.87921 | 92.04822 | 35867 ft | 474 kts | 289° |
| 2026-05-05 08:59 | 16.90178 | 91.98353 | 35867 ft | 474 kts | 289° |
| 2026-05-05 09:00 | 16.92473 | 91.91891 | 35865 ft | 475 kts | 289° |
| 2026-05-05 09:00 | 16.94761 | 91.85477 | 35870 ft | 474 kts | 289° |
| 2026-05-05 09:01 | 16.97056 | 91.79024 | 35865 ft | 474 kts | 289° |
| 2026-05-05 09:01 | 16.99343 | 91.72575 | 35862 ft | 473 kts | 289° |
| 2026-05-05 09:02 | 17.01626 | 91.66127 | 35866 ft | 473 kts | 289° |
| 2026-05-05 09:02 | 17.03890 | 91.59723 | 35866 ft | 473 kts | 289° |
| 2026-05-05 09:03 | 17.06167 | 91.53280 | 35868 ft | 472 kts | 289° |
| 2026-05-05 09:03 | 17.08438 | 91.46843 | 35864 ft | 472 kts | 289° |
| 2026-05-05 09:04 | 17.10706 | 91.40409 | 35861 ft | 471 kts | 289° |
| 2026-05-05 09:04 | 17.12954 | 91.34024 | 35863 ft | 471 kts | 289° |
| 2026-05-05 09:05 | 17.15213 | 91.27599 | 35863 ft | 471 kts | 289° |
| 2026-05-05 09:05 | 17.17470 | 91.21174 | 35866 ft | 471 kts | 289° |
| 2026-05-05 09:06 | 17.19726 | 91.14745 | 35863 ft | 471 kts | 289° |
| 2026-05-05 09:06 | 17.21964 | 91.08358 | 35865 ft | 471 kts | 289° |
| 2026-05-05 09:07 | 17.24215 | 91.01928 | 35860 ft | 471 kts | 289° |
| 2026-05-05 09:07 | 17.26463 | 90.95498 | 35864 ft | 470 kts | 289° |
| 2026-05-05 09:08 | 17.28710 | 90.89064 | 35863 ft | 470 kts | 289° |
| 2026-05-05 09:08 | 17.30937 | 90.82680 | 35861 ft | 470 kts | 289° |
| 2026-05-05 09:09 | 17.33179 | 90.76246 | 35866 ft | 470 kts | 289° |
| 2026-05-05 09:09 | 17.35416 | 90.69818 | 35864 ft | 470 kts | 289° |
| 2026-05-05 09:10 | 17.37650 | 90.63389 | 35861 ft | 470 kts | 288° |
| 2026-05-05 09:10 | 17.39881 | 90.56966 | 35873 ft | 469 kts | 288° |
| 2026-05-05 09:11 | 17.42061 | 90.50576 | 35866 ft | 469 kts | 287° |
| 2026-05-05 09:11 | 17.44171 | 90.44122 | 35862 ft | 468 kts | 287° |
| 2026-05-05 09:12 | 17.46268 | 90.37670 | 35866 ft | 468 kts | 287° |
| 2026-05-05 09:12 | 17.48372 | 90.31228 | 35860 ft | 467 kts | 287° |
| 2026-05-05 09:13 | 17.50464 | 90.24829 | 35861 ft | 467 kts | 287° |
| 2026-05-05 09:13 | 17.52568 | 90.18392 | 35860 ft | 467 kts | 287° |
| 2026-05-05 09:14 | 17.54671 | 90.11952 | 35858 ft | 467 kts | 287° |
| 2026-05-05 09:14 | 17.56771 | 90.05510 | 35861 ft | 467 kts | 287° |
| 2026-05-05 09:15 | 17.58855 | 89.99107 | 35865 ft | 468 kts | 287° |
| 2026-05-05 09:15 | 17.60955 | 89.92653 | 35858 ft | 468 kts | 287° |
| 2026-05-05 09:16 | 17.63056 | 89.86184 | 35856 ft | 469 kts | 287° |
| 2026-05-05 09:16 | 17.65157 | 89.79704 | 35855 ft | 470 kts | 287° |
| 2026-05-05 09:17 | 17.67244 | 89.73263 | 35855 ft | 470 kts | 287° |
| 2026-05-05 09:17 | 17.69347 | 89.66766 | 35852 ft | 470 kts | 286° |
| 2026-05-05 09:18 | 17.71446 | 89.60271 | 35852 ft | 470 kts | 286° |
| 2026-05-05 09:18 | 17.73544 | 89.53771 | 35852 ft | 470 kts | 286° |
| 2026-05-05 09:19 | 17.75625 | 89.47315 | 35859 ft | 470 kts | 286° |
| 2026-05-05 09:19 | 17.77714 | 89.40827 | 35850 ft | 469 kts | 286° |
| 2026-05-05 09:20 | 17.79797 | 89.34349 | 35853 ft | 468 kts | 286° |
| 2026-05-05 09:20 | 17.81874 | 89.27882 | 35851 ft | 467 kts | 286° |
| 2026-05-05 09:21 | 17.83934 | 89.21462 | 35849 ft | 467 kts | 286° |
| 2026-05-05 09:21 | 17.86004 | 89.14997 | 35854 ft | 468 kts | 286° |
| 2026-05-05 09:22 | 17.88076 | 89.08520 | 35853 ft | 469 kts | 286° |
| 2026-05-05 09:22 | 17.90152 | 89.02024 | 35853 ft | 470 kts | 286° |
| 2026-05-05 09:23 | 17.92229 | 88.95514 | 35853 ft | 470 kts | 286° |
| 2026-05-05 09:23 | 17.94292 | 88.89041 | 35852 ft | 471 kts | 286° |
| 2026-05-05 09:24 | 17.96374 | 88.82515 | 35847 ft | 472 kts | 286° |
| 2026-05-05 09:24 | 17.98508 | 88.75995 | 35851 ft | 472 kts | 286° |
| 2026-05-05 09:25 | 18.00659 | 88.69468 | 35850 ft | 473 kts | 286° |
| 2026-05-05 09:25 | 18.02803 | 88.62934 | 35849 ft | 473 kts | 286° |
| 2026-05-05 09:26 | 18.04925 | 88.56441 | 35846 ft | 473 kts | 286° |
| 2026-05-05 09:26 | 18.07059 | 88.49898 | 35846 ft | 473 kts | 286° |
| 2026-05-05 09:27 | 18.09192 | 88.43354 | 35853 ft | 473 kts | 286° |
| 2026-05-05 09:27 | 18.11322 | 88.36808 | 35846 ft | 473 kts | 286° |
| 2026-05-05 09:28 | 18.13448 | 88.30269 | 35843 ft | 473 kts | 286° |
| 2026-05-05 09:28 | 18.15555 | 88.23777 | 35847 ft | 472 kts | 286° |
| 2026-05-05 09:29 | 18.17673 | 88.17244 | 35846 ft | 472 kts | 286° |
| 2026-05-05 09:29 | 18.19789 | 88.10710 | 35844 ft | 472 kts | 286° |
| 2026-05-05 09:30 | 18.21903 | 88.04173 | 35841 ft | 472 kts | 286° |
| 2026-05-05 09:30 | 18.24002 | 87.97672 | 35845 ft | 473 kts | 286° |
| 2026-05-05 09:31 | 18.26114 | 87.91122 | 35846 ft | 473 kts | 286° |
| 2026-05-05 09:31 | 18.28228 | 87.84561 | 35841 ft | 474 kts | 286° |
| 2026-05-05 09:32 | 18.30363 | 87.78005 | 35842 ft | 474 kts | 286° |
| 2026-05-05 09:32 | 18.32515 | 87.71495 | 35841 ft | 474 kts | 286° |
| 2026-05-05 09:33 | 18.34681 | 87.64933 | 35840 ft | 475 kts | 286° |
| 2026-05-05 09:33 | 18.36841 | 87.58363 | 35842 ft | 475 kts | 286° |
| 2026-05-05 09:34 | 18.38997 | 87.51790 | 35839 ft | 475 kts | 286° |
| 2026-05-05 09:34 | 18.41136 | 87.45258 | 35838 ft | 475 kts | 286° |
| 2026-05-05 09:35 | 18.43288 | 87.38681 | 35839 ft | 475 kts | 286° |
| 2026-05-05 09:35 | 18.46510 | 87.28816 | 35835 ft | 475 kts | 286° |
| 2026-05-05 09:36 | 18.48654 | 87.22240 | 35836 ft | 474 kts | 286° |
| 2026-05-05 09:36 | 18.50779 | 87.15715 | 35836 ft | 474 kts | 286° |
| 2026-05-05 09:37 | 18.52916 | 87.09143 | 35834 ft | 474 kts | 286° |
| 2026-05-05 09:37 | 18.55052 | 87.02567 | 35833 ft | 474 kts | 286° |
| 2026-05-05 09:38 | 18.57186 | 86.95987 | 35833 ft | 474 kts | 286° |
| 2026-05-05 09:38 | 18.59305 | 86.89448 | 35833 ft | 475 kts | 286° |
| 2026-05-05 09:39 | 18.61434 | 86.82865 | 35831 ft | 475 kts | 286° |
| 2026-05-05 09:39 | 18.63564 | 86.76273 | 35830 ft | 475 kts | 286° |
| 2026-05-05 09:40 | 18.65691 | 86.69679 | 35828 ft | 475 kts | 286° |
| 2026-05-05 09:40 | 18.67803 | 86.63127 | 35831 ft | 475 kts | 286° |
| 2026-05-05 09:41 | 18.69927 | 86.56526 | 35829 ft | 475 kts | 286° |
| 2026-05-05 09:41 | 18.72050 | 86.49920 | 35833 ft | 476 kts | 286° |
| 2026-05-05 09:42 | 18.74171 | 86.43310 | 35828 ft | 476 kts | 286° |
| 2026-05-05 09:42 | 18.76290 | 86.36697 | 35827 ft | 476 kts | 286° |
| 2026-05-05 09:43 | 18.78395 | 86.30120 | 35826 ft | 476 kts | 286° |
| 2026-05-05 09:43 | 18.80512 | 86.23497 | 35828 ft | 476 kts | 286° |
| 2026-05-05 09:44 | 18.82628 | 86.16868 | 35829 ft | 476 kts | 286° |
| 2026-05-05 09:44 | 18.84740 | 86.10242 | 35825 ft | 476 kts | 286° |
| 2026-05-05 09:45 | 18.86851 | 86.03612 | 35827 ft | 476 kts | 286° |
| 2026-05-05 09:45 | 18.88942 | 85.97033 | 35824 ft | 476 kts | 286° |
| 2026-05-05 09:46 | 18.91044 | 85.90410 | 35824 ft | 476 kts | 286° |
| 2026-05-05 09:46 | 18.93150 | 85.83785 | 35822 ft | 476 kts | 286° |
| 2026-05-05 09:47 | 18.95304 | 85.77175 | 35822 ft | 476 kts | 286° |
| 2026-05-05 09:47 | 18.97456 | 85.70613 | 35822 ft | 476 kts | 286° |
| 2026-05-05 09:48 | 18.99614 | 85.64002 | 35819 ft | 476 kts | 286° |
| 2026-05-05 09:48 | 19.01767 | 85.57380 | 35820 ft | 476 kts | 286° |
| 2026-05-05 09:49 | 19.03917 | 85.50759 | 35817 ft | 477 kts | 286° |
| 2026-05-05 09:49 | 19.06052 | 85.44174 | 35816 ft | 477 kts | 286° |
| 2026-05-05 09:50 | 19.08199 | 85.37543 | 35820 ft | 477 kts | 286° |
| 2026-05-05 09:50 | 19.10344 | 85.30910 | 35812 ft | 477 kts | 286° |
| 2026-05-05 09:51 | 19.12471 | 85.24274 | 35810 ft | 476 kts | 285° |
| 2026-05-05 09:51 | 19.14457 | 85.17605 | 35811 ft | 475 kts | 284° |
| 2026-05-05 09:52 | 19.16389 | 85.10970 | 35811 ft | 475 kts | 284° |
| 2026-05-05 09:52 | 19.18346 | 85.04296 | 35811 ft | 475 kts | 285° |
| 2026-05-05 09:53 | 19.20313 | 84.97621 | 35809 ft | 475 kts | 285° |
| 2026-05-05 09:53 | 19.22281 | 84.90950 | 35806 ft | 475 kts | 285° |
| 2026-05-05 09:54 | 19.24244 | 84.84279 | 35804 ft | 475 kts | 285° |
| 2026-05-05 09:54 | 19.26191 | 84.77651 | 35807 ft | 475 kts | 285° |
| 2026-05-05 09:55 | 19.28149 | 84.70978 | 35811 ft | 475 kts | 284° |
| 2026-05-05 09:55 | 19.30103 | 84.64308 | 35826 ft | 474 kts | 285° |
| 2026-05-05 09:56 | 19.32041 | 84.57678 | 35810 ft | 475 kts | 285° |
| 2026-05-05 09:56 | 19.33990 | 84.51006 | 35826 ft | 474 kts | 285° |
| 2026-05-05 09:57 | 19.35936 | 84.44333 | 35826 ft | 474 kts | 285° |
| 2026-05-05 09:57 | 19.37878 | 84.37664 | 35841 ft | 474 kts | 285° |
| 2026-05-05 09:58 | 19.39813 | 84.31005 | 35844 ft | 473 kts | 285° |
| 2026-05-05 09:58 | 19.41732 | 84.24397 | 35834 ft | 472 kts | 285° |
| 2026-05-05 09:59 | 19.43850 | 84.17821 | 35833 ft | 472 kts | 288° |
| 2026-05-05 09:59 | 19.46233 | 84.11341 | 35840 ft | 472 kts | 289° |
| 2026-05-05 10:00 | 19.48628 | 84.04871 | 35834 ft | 471 kts | 289° |
| 2026-05-05 10:00 | 19.50984 | 83.98439 | 35835 ft | 471 kts | 288° |
| 2026-05-05 10:01 | 19.53345 | 83.91954 | 35840 ft | 472 kts | 288° |
| 2026-05-05 10:01 | 19.55706 | 83.85450 | 35831 ft | 473 kts | 289° |
| 2026-05-05 10:02 | 19.58068 | 83.78942 | 35831 ft | 473 kts | 289° |
| 2026-05-05 10:02 | 19.60413 | 83.72473 | 35833 ft | 473 kts | 289° |
| 2026-05-05 10:03 | 19.62774 | 83.65949 | 35824 ft | 474 kts | 289° |
| 2026-05-05 10:03 | 19.65134 | 83.59425 | 35829 ft | 474 kts | 289° |
| 2026-05-05 10:04 | 19.67490 | 83.52901 | 35820 ft | 473 kts | 289° |
| 2026-05-05 10:04 | 19.69824 | 83.46427 | 35825 ft | 472 kts | 289° |
| 2026-05-05 10:05 | 19.72168 | 83.39919 | 35826 ft | 471 kts | 289° |
| 2026-05-05 10:05 | 19.74500 | 83.33432 | 35822 ft | 470 kts | 289° |
| 2026-05-05 10:06 | 19.76824 | 83.26965 | 35827 ft | 468 kts | 289° |
| 2026-05-05 10:06 | 19.79128 | 83.20544 | 35832 ft | 469 kts | 288° |
| 2026-05-05 10:07 | 19.81448 | 83.14067 | 35801 ft | 470 kts | 289° |
| 2026-05-05 10:07 | 19.83772 | 83.07571 | 35807 ft | 471 kts | 289° |
| 2026-05-05 10:08 | 19.86100 | 83.01054 | 35812 ft | 473 kts | 289° |
| 2026-05-05 10:08 | 19.88435 | 82.94512 | 35803 ft | 474 kts | 289° |
| 2026-05-05 10:09 | 19.90762 | 82.88002 | 35805 ft | 475 kts | 289° |
| 2026-05-05 10:09 | 19.93144 | 82.81457 | 35802 ft | 475 kts | 289° |
| 2026-05-05 10:10 | 19.95534 | 82.74906 | 35789 ft | 476 kts | 289° |
| 2026-05-05 10:10 | 19.97924 | 82.68330 | 35818 ft | 478 kts | 289° |
| 2026-05-05 10:11 | 20.00320 | 82.61719 | 35819 ft | 480 kts | 289° |
| 2026-05-05 10:11 | 20.02700 | 82.55140 | 35831 ft | 480 kts | 289° |
| 2026-05-05 10:12 | 20.05089 | 82.48531 | 35824 ft | 478 kts | 289° |
| 2026-05-05 10:12 | 20.07472 | 82.41929 | 35824 ft | 477 kts | 289° |
| 2026-05-05 10:13 | 20.09845 | 82.35343 | 35825 ft | 477 kts | 289° |
| 2026-05-05 10:13 | 20.12202 | 82.28795 | 35827 ft | 477 kts | 289° |
| 2026-05-05 10:14 | 20.14577 | 82.22191 | 35833 ft | 478 kts | 289° |
| 2026-05-05 10:14 | 20.16950 | 82.15578 | 35824 ft | 479 kts | 289° |
| 2026-05-05 10:15 | 20.17723 | 82.13424 | 35824 ft | 479 kts | 289° |
| 2026-05-05 10:16 | 20.19551 | 82.08321 | 35819 ft | 480 kts | 289° |
| 2026-05-05 10:16 | 20.21928 | 82.01683 | 35821 ft | 480 kts | 289° |
| 2026-05-05 10:17 | 20.24078 | 81.94962 | 35822 ft | 479 kts | 286° |
| 2026-05-05 10:17 | 20.26027 | 81.88215 | 35812 ft | 480 kts | 286° |
| 2026-05-05 10:18 | 20.27984 | 81.81422 | 35812 ft | 480 kts | 286° |
| 2026-05-05 10:18 | 20.29956 | 81.74638 | 35814 ft | 479 kts | 285° |
| 2026-05-05 10:19 | 20.31927 | 81.67875 | 35804 ft | 478 kts | 285° |
| 2026-05-05 10:19 | 20.33891 | 81.61126 | 35802 ft | 476 kts | 286° |
| 2026-05-05 10:20 | 20.35836 | 81.54428 | 35800 ft | 476 kts | 286° |
| 2026-05-05 10:20 | 20.37787 | 81.47697 | 35802 ft | 475 kts | 286° |
| 2026-05-05 10:21 | 20.39449 | 81.41956 | 35801 ft | 475 kts | 286° |
| 2026-05-05 10:21 | 20.41393 | 81.35228 | 35796 ft | 475 kts | 286° |
| 2026-05-05 10:22 | 20.43338 | 81.28489 | 35797 ft | 475 kts | 286° |
| 2026-05-05 10:22 | 20.45278 | 81.21799 | 35802 ft | 476 kts | 287° |
| 2026-05-05 10:23 | 20.47283 | 81.15079 | 35797 ft | 476 kts | 287° |
| 2026-05-05 10:23 | 20.49297 | 81.08359 | 35796 ft | 476 kts | 287° |
| 2026-05-05 10:24 | 20.51301 | 81.01636 | 35817 ft | 476 kts | 287° |
| 2026-05-05 10:24 | 20.53289 | 80.94941 | 35808 ft | 476 kts | 287° |
| 2026-05-05 10:25 | 20.55285 | 80.88207 | 35793 ft | 476 kts | 287° |
| 2026-05-05 10:25 | 20.57275 | 80.81478 | 35810 ft | 475 kts | 287° |
| 2026-05-05 10:26 | 20.59259 | 80.74764 | 35791 ft | 473 kts | 287° |
| 2026-05-05 10:26 | 20.61217 | 80.68124 | 35790 ft | 471 kts | 287° |
| 2026-05-05 10:27 | 20.63179 | 80.61461 | 35797 ft | 470 kts | 287° |
| 2026-05-05 10:27 | 20.65134 | 80.54814 | 35788 ft | 469 kts | 287° |
| 2026-05-05 10:28 | 20.67085 | 80.48166 | 35791 ft | 469 kts | 287° |
| 2026-05-05 10:28 | 20.69036 | 80.41507 | 35785 ft | 470 kts | 287° |
| 2026-05-05 10:29 | 20.70978 | 80.34874 | 35787 ft | 472 kts | 287° |
| 2026-05-05 10:29 | 20.72935 | 80.28177 | 35787 ft | 473 kts | 287° |
| 2026-05-05 10:30 | 20.74893 | 80.21465 | 35789 ft | 474 kts | 287° |
| 2026-05-05 10:30 | 20.76850 | 80.14744 | 35800 ft | 473 kts | 287° |
| 2026-05-05 10:31 | 20.78786 | 80.08088 | 35787 ft | 471 kts | 287° |
| 2026-05-05 10:31 | 20.80725 | 80.01411 | 35786 ft | 469 kts | 287° |
| 2026-05-05 10:32 | 20.82653 | 79.94757 | 35787 ft | 468 kts | 287° |
| 2026-05-05 10:32 | 20.84574 | 79.88120 | 35799 ft | 467 kts | 287° |
| 2026-05-05 10:33 | 20.86473 | 79.81550 | 35793 ft | 465 kts | 286° |
| 2026-05-05 10:33 | 20.88378 | 79.74945 | 35782 ft | 465 kts | 287° |
| 2026-05-05 10:34 | 20.90281 | 79.68337 | 35783 ft | 466 kts | 287° |
| 2026-05-05 10:34 | 20.92189 | 79.61704 | 35783 ft | 467 kts | 287° |
| 2026-05-05 10:35 | 20.94101 | 79.55046 | 35778 ft | 469 kts | 287° |
| 2026-05-05 10:35 | 20.96001 | 79.48418 | 35773 ft | 470 kts | 287° |
| 2026-05-05 10:36 | 20.97915 | 79.41729 | 35775 ft | 470 kts | 287° |
| 2026-05-05 10:36 | 20.99828 | 79.35035 | 35772 ft | 470 kts | 287° |
| 2026-05-05 10:37 | 21.01737 | 79.28342 | 35775 ft | 470 kts | 287° |
| 2026-05-05 10:37 | 21.03644 | 79.21648 | 35771 ft | 470 kts | 287° |
| 2026-05-05 10:38 | 21.05532 | 79.15005 | 35770 ft | 470 kts | 287° |
| 2026-05-05 10:38 | 21.07430 | 79.08320 | 35775 ft | 469 kts | 286° |
| 2026-05-05 10:39 | 21.09384 | 79.01653 | 35745 ft | 469 kts | 288° |
| 2026-05-05 10:39 | 21.11509 | 78.95043 | 35763 ft | 469 kts | 288° |
| 2026-05-05 10:40 | 21.13628 | 78.88437 | 35757 ft | 469 kts | 288° |
| 2026-05-05 10:40 | 21.15700 | 78.81872 | 35764 ft | 468 kts | 288° |
| 2026-05-05 10:41 | 21.17774 | 78.75275 | 35776 ft | 467 kts | 288° |
| 2026-05-05 10:41 | 21.19848 | 78.68692 | 35784 ft | 466 kts | 288° |
| 2026-05-05 10:42 | 21.22966 | 78.58812 | 35791 ft | 467 kts | 288° |
| 2026-05-05 10:43 | 21.25029 | 78.52258 | 35790 ft | 468 kts | 288° |
| 2026-05-05 10:43 | 21.27108 | 78.45642 | 35800 ft | 469 kts | 288° |
| 2026-05-05 10:44 | 21.29187 | 78.39014 | 35798 ft | 469 kts | 288° |
| 2026-05-05 10:44 | 21.31266 | 78.32376 | 35800 ft | 470 kts | 288° |
| 2026-05-05 10:45 | 21.33328 | 78.25781 | 35802 ft | 470 kts | 288° |
| 2026-05-05 10:45 | 21.35403 | 78.19138 | 35799 ft | 469 kts | 288° |
| 2026-05-05 10:46 | 21.37472 | 78.12503 | 35802 ft | 469 kts | 288° |
| 2026-05-05 10:46 | 21.39537 | 78.05866 | 35816 ft | 468 kts | 288° |
| 2026-05-05 10:47 | 21.41593 | 77.99252 | 35802 ft | 467 kts | 288° |
| 2026-05-05 10:47 | 21.43627 | 77.92699 | 35804 ft | 465 kts | 288° |
| 2026-05-05 10:48 | 21.45667 | 77.86113 | 35810 ft | 465 kts | 288° |
| 2026-05-05 10:48 | 21.47703 | 77.79532 | 35805 ft | 465 kts | 288° |
| 2026-05-05 10:49 | 21.49737 | 77.72946 | 35805 ft | 465 kts | 288° |
| 2026-05-05 10:49 | 21.51764 | 77.66398 | 35810 ft | 466 kts | 288° |
| 2026-05-05 10:50 | 21.53874 | 77.59819 | 35807 ft | 466 kts | 288° |
| 2026-05-05 10:50 | 21.55998 | 77.53232 | 35806 ft | 467 kts | 288° |
| 2026-05-05 10:51 | 21.58110 | 77.46633 | 35816 ft | 468 kts | 288° |
| 2026-05-05 10:51 | 21.60210 | 77.40055 | 35820 ft | 469 kts | 288° |
| 2026-05-05 10:52 | 21.62375 | 77.33440 | 35822 ft | 470 kts | 289° |
| 2026-05-05 10:52 | 21.64629 | 77.26848 | 35819 ft | 470 kts | 289° |
| 2026-05-05 10:53 | 21.66503 | 77.21368 | 35815 ft | 470 kts | 289° |
| 2026-05-05 10:53 | 21.68743 | 77.14768 | 35821 ft | 470 kts | 289° |
| 2026-05-05 10:54 | 21.71334 | 77.07093 | 35818 ft | 470 kts | 289° |
| 2026-05-05 10:54 | 21.73560 | 77.00486 | 35818 ft | 470 kts | 289° |
| 2026-05-05 10:55 | 21.75409 | 76.94993 | 35821 ft | 470 kts | 289° |
| 2026-05-05 10:55 | 21.77631 | 76.88383 | 35824 ft | 470 kts | 289° |
| 2026-05-05 10:56 | 21.80210 | 76.80698 | 35816 ft | 470 kts | 289° |
| 2026-05-05 10:56 | 21.82067 | 76.75157 | 35822 ft | 470 kts | 289° |
| 2026-05-05 10:57 | 21.84265 | 76.68588 | 35823 ft | 470 kts | 289° |
| 2026-05-05 10:57 | 21.86478 | 76.61965 | 35825 ft | 470 kts | 289° |
| 2026-05-05 10:58 | 21.88686 | 76.55345 | 35828 ft | 470 kts | 289° |
| 2026-05-05 10:58 | 21.90896 | 76.48723 | 35837 ft | 470 kts | 289° |
| 2026-05-05 10:59 | 21.93091 | 76.42144 | 35833 ft | 470 kts | 289° |
| 2026-05-05 10:59 | 21.95295 | 76.35529 | 35841 ft | 469 kts | 289° |
| 2026-05-05 11:00 | 21.97495 | 76.28913 | 35839 ft | 469 kts | 289° |
| 2026-05-05 11:00 | 21.99691 | 76.22299 | 35844 ft | 469 kts | 289° |
| 2026-05-05 11:01 | 22.01883 | 76.15684 | 35849 ft | 469 kts | 289° |
| 2026-05-05 11:01 | 22.04058 | 76.09113 | 35843 ft | 469 kts | 289° |
| 2026-05-05 11:02 | 22.06248 | 76.02485 | 35851 ft | 470 kts | 289° |
| 2026-05-05 11:02 | 22.08398 | 75.95830 | 35849 ft | 470 kts | 288° |
| 2026-05-05 11:03 | 22.10439 | 75.89128 | 35849 ft | 471 kts | 287° |
| 2026-05-05 11:03 | 22.12469 | 75.82411 | 35849 ft | 471 kts | 287° |
| 2026-05-05 11:04 | 22.14495 | 75.75742 | 35841 ft | 471 kts | 288° |
| 2026-05-05 11:04 | 22.16542 | 75.69024 | 35860 ft | 471 kts | 288° |
| 2026-05-05 11:05 | 22.18586 | 75.62315 | 35847 ft | 470 kts | 288° |
| 2026-05-05 11:05 | 22.20622 | 75.55619 | 35852 ft | 469 kts | 288° |
| 2026-05-05 11:06 | 22.22648 | 75.48939 | 35855 ft | 468 kts | 288° |
| 2026-05-05 11:06 | 22.24655 | 75.42315 | 35846 ft | 467 kts | 288° |
| 2026-05-05 11:07 | 22.26672 | 75.35644 | 35850 ft | 467 kts | 288° |
| 2026-05-05 11:07 | 22.28688 | 75.28966 | 35845 ft | 468 kts | 288° |
| 2026-05-05 11:08 | 22.30691 | 75.22322 | 35848 ft | 469 kts | 288° |
| 2026-05-05 11:08 | 22.32707 | 75.15624 | 35839 ft | 470 kts | 288° |
| 2026-05-05 11:09 | 22.34723 | 75.08912 | 35836 ft | 470 kts | 288° |
| 2026-05-05 11:09 | 22.36739 | 75.02192 | 35825 ft | 470 kts | 288° |
| 2026-05-05 11:10 | 22.38752 | 74.95469 | 35837 ft | 471 kts | 288° |
| 2026-05-05 11:10 | 22.40751 | 74.88780 | 35844 ft | 471 kts | 288° |
| 2026-05-05 11:11 | 22.42758 | 74.82056 | 35831 ft | 470 kts | 288° |
| 2026-05-05 11:11 | 22.44760 | 74.75337 | 35830 ft | 469 kts | 288° |
| 2026-05-05 11:12 | 22.46754 | 74.68633 | 35830 ft | 468 kts | 288° |
| 2026-05-05 11:12 | 22.48730 | 74.61978 | 35827 ft | 468 kts | 287° |
| 2026-05-05 11:13 | 22.50714 | 74.55285 | 35829 ft | 467 kts | 287° |
| 2026-05-05 11:13 | 22.52696 | 74.48588 | 35829 ft | 467 kts | 287° |
| 2026-05-05 11:14 | 22.54675 | 74.41889 | 35822 ft | 468 kts | 287° |
| 2026-05-05 11:14 | 22.56639 | 74.35228 | 35815 ft | 468 kts | 287° |
| 2026-05-05 11:15 | 22.58616 | 74.28513 | 35823 ft | 469 kts | 287° |
| 2026-05-05 11:15 | 22.60594 | 74.21787 | 35827 ft | 469 kts | 288° |
| 2026-05-05 11:16 | 22.62601 | 74.15062 | 35810 ft | 470 kts | 288° |
| 2026-05-05 11:16 | 22.64611 | 74.08329 | 35816 ft | 470 kts | 288° |
| 2026-05-05 11:17 | 22.66590 | 74.01645 | 35798 ft | 469 kts | 288° |
| 2026-05-05 11:17 | 22.68576 | 73.94923 | 35802 ft | 469 kts | 288° |
| 2026-05-05 11:18 | 22.70560 | 73.88201 | 35795 ft | 468 kts | 288° |
| 2026-05-05 11:18 | 22.72539 | 73.81488 | 35798 ft | 468 kts | 288° |
| 2026-05-05 11:19 | 22.74516 | 73.74769 | 35782 ft | 468 kts | 288° |
| 2026-05-05 11:19 | 22.76479 | 73.68087 | 35783 ft | 469 kts | 288° |
| 2026-05-05 11:20 | 22.78453 | 73.61355 | 35772 ft | 469 kts | 288° |
| 2026-05-05 11:20 | 22.80429 | 73.54610 | 35775 ft | 470 kts | 288° |
| 2026-05-05 11:21 | 22.82406 | 73.47854 | 35766 ft | 471 kts | 288° |
| 2026-05-05 11:21 | 22.84370 | 73.41134 | 35766 ft | 471 kts | 288° |
| 2026-05-05 11:22 | 22.86345 | 73.34358 | 35788 ft | 471 kts | 288° |
| 2026-05-05 11:22 | 22.88311 | 73.27584 | 35761 ft | 470 kts | 288° |
| 2026-05-05 11:23 | 22.90266 | 73.20828 | 35761 ft | 469 kts | 288° |
| 2026-05-05 11:23 | 22.92202 | 73.14131 | 35767 ft | 468 kts | 288° |
| 2026-05-05 11:24 | 22.94145 | 73.07398 | 35773 ft | 468 kts | 288° |
| 2026-05-05 11:24 | 22.96084 | 73.00668 | 35771 ft | 467 kts | 287° |
| 2026-05-05 11:25 | 22.98020 | 72.93934 | 35766 ft | 468 kts | 288° |
| 2026-05-05 11:25 | 22.99957 | 72.87188 | 35772 ft | 468 kts | 288° |
| 2026-05-05 11:26 | 23.01879 | 72.80482 | 35775 ft | 469 kts | 288° |
| 2026-05-05 11:26 | 23.03816 | 72.73709 | 35775 ft | 470 kts | 288° |
| 2026-05-05 11:27 | 23.05649 | 72.66892 | 35774 ft | 471 kts | 282° |
| 2026-05-05 11:27 | 23.06229 | 72.59807 | 35780 ft | 473 kts | 271° |
| 2026-05-05 11:28 | 23.05592 | 72.52731 | 35782 ft | 476 kts | 263° |
| 2026-05-05 11:28 | 23.04537 | 72.45625 | 35777 ft | 477 kts | 263° |
| 2026-05-05 11:29 | 23.03485 | 72.38511 | 35775 ft | 478 kts | 263° |
| 2026-05-05 11:29 | 23.02463 | 72.31388 | 35776 ft | 478 kts | 263° |
| 2026-05-05 11:30 | 23.01454 | 72.24265 | 35768 ft | 478 kts | 264° |
| 2026-05-05 11:30 | 23.00450 | 72.17188 | 35775 ft | 478 kts | 263° |
| 2026-05-05 11:31 | 22.99435 | 72.10060 | 35777 ft | 478 kts | 263° |
| 2026-05-05 11:31 | 22.98415 | 72.02929 | 35774 ft | 478 kts | 263° |
| 2026-05-05 11:32 | 22.97391 | 71.95799 | 35778 ft | 478 kts | 263° |
| 2026-05-05 11:32 | 22.96371 | 71.88717 | 35769 ft | 479 kts | 263° |
| 2026-05-05 11:33 | 22.95340 | 71.81583 | 35786 ft | 479 kts | 263° |
| 2026-05-05 11:33 | 22.94305 | 71.74441 | 35786 ft | 479 kts | 263° |
| 2026-05-05 11:34 | 22.93266 | 71.67295 | 35789 ft | 480 kts | 263° |
| 2026-05-05 11:34 | 22.92230 | 71.60195 | 35790 ft | 480 kts | 263° |
| 2026-05-05 11:35 | 22.91183 | 71.53041 | 35786 ft | 480 kts | 263° |
| 2026-05-05 11:35 | 22.90132 | 71.45888 | 35794 ft | 481 kts | 263° |
| 2026-05-05 11:36 | 22.89078 | 71.38729 | 35795 ft | 481 kts | 263° |
| 2026-05-05 11:36 | 22.88019 | 71.31566 | 35795 ft | 481 kts | 263° |
| 2026-05-05 11:37 | 22.86964 | 71.24450 | 35799 ft | 481 kts | 263° |
| 2026-05-05 11:37 | 22.85899 | 71.17288 | 35800 ft | 481 kts | 263° |
| 2026-05-05 11:38 | 22.84830 | 71.10124 | 35807 ft | 481 kts | 263° |
| 2026-05-05 11:38 | 22.83759 | 71.02964 | 35817 ft | 481 kts | 263° |
| 2026-05-05 11:39 | 22.82692 | 70.95854 | 35824 ft | 481 kts | 263° |
| 2026-05-05 11:39 | 22.81615 | 70.88697 | 35824 ft | 481 kts | 263° |
| 2026-05-05 11:40 | 22.80956 | 70.81509 | 35833 ft | 478 kts | 271° |
| 2026-05-05 11:40 | 22.81309 | 70.74335 | 35836 ft | 477 kts | 276° |
| 2026-05-05 11:41 | 22.81812 | 70.67163 | 35829 ft | 478 kts | 276° |
| 2026-05-05 11:41 | 22.82284 | 70.60024 | 35833 ft | 478 kts | 276° |
| 2026-05-05 11:42 | 22.82739 | 70.52835 | 35820 ft | 478 kts | 276° |
| 2026-05-05 11:42 | 22.83186 | 70.45639 | 35849 ft | 478 kts | 276° |
| 2026-05-05 11:43 | 22.83627 | 70.38509 | 35829 ft | 476 kts | 276° |
| 2026-05-05 11:43 | 22.84067 | 70.31356 | 35828 ft | 475 kts | 276° |
| 2026-05-05 11:44 | 22.84503 | 70.24227 | 35829 ft | 473 kts | 276° |
| 2026-05-05 11:44 | 22.84934 | 70.17113 | 35827 ft | 473 kts | 275° |
| 2026-05-05 11:45 | 22.85362 | 70.10006 | 35827 ft | 472 kts | 275° |
| 2026-05-05 11:45 | 22.85784 | 70.02950 | 35827 ft | 473 kts | 275° |
| 2026-05-05 11:46 | 22.86207 | 69.95830 | 35828 ft | 473 kts | 275° |
| 2026-05-05 11:46 | 22.86626 | 69.88703 | 35828 ft | 474 kts | 275° |
| 2026-05-05 11:47 | 22.87043 | 69.81565 | 35825 ft | 474 kts | 275° |
| 2026-05-05 11:47 | 22.87454 | 69.74471 | 35830 ft | 475 kts | 275° |
| 2026-05-05 11:48 | 22.88103 | 69.63748 | 35829 ft | 475 kts | 276° |
| 2026-05-05 11:48 | 22.88574 | 69.56602 | 35828 ft | 475 kts | 276° |
| 2026-05-05 11:49 | 22.89038 | 69.49504 | 35827 ft | 475 kts | 276° |
| 2026-05-05 11:49 | 22.89496 | 69.42356 | 35827 ft | 475 kts | 276° |
| 2026-05-05 11:50 | 22.89949 | 69.35206 | 35827 ft | 475 kts | 275° |
| 2026-05-05 11:50 | 22.90399 | 69.28058 | 35823 ft | 475 kts | 275° |
| 2026-05-05 11:51 | 22.90845 | 69.20905 | 35823 ft | 475 kts | 275° |
| 2026-05-05 11:51 | 22.91286 | 69.13807 | 35827 ft | 475 kts | 275° |
| 2026-05-05 11:52 | 22.91726 | 69.06657 | 35824 ft | 475 kts | 275° |
| 2026-05-05 11:52 | 22.92163 | 68.99505 | 35823 ft | 475 kts | 275° |
| 2026-05-05 11:53 | 22.92596 | 68.92358 | 35824 ft | 475 kts | 275° |
| 2026-05-05 11:53 | 22.93024 | 68.85260 | 35826 ft | 474 kts | 275° |
| 2026-05-05 11:54 | 22.93450 | 68.78134 | 35822 ft | 473 kts | 275° |
| 2026-05-05 11:54 | 22.93871 | 68.71025 | 35822 ft | 472 kts | 275° |
| 2026-05-05 11:55 | 22.94289 | 68.63929 | 35821 ft | 471 kts | 275° |
| 2026-05-05 11:55 | 22.94701 | 68.56886 | 35824 ft | 471 kts | 275° |
| 2026-05-05 11:56 | 22.95112 | 68.49799 | 35818 ft | 471 kts | 275° |
| 2026-05-05 11:56 | 22.95520 | 68.42707 | 35829 ft | 471 kts | 275° |
| 2026-05-05 11:57 | 22.95843 | 68.35598 | 35822 ft | 472 kts | 272° |
| 2026-05-05 11:57 | 22.95850 | 68.28460 | 35825 ft | 474 kts | 271° |
| 2026-05-05 11:58 | 22.95825 | 68.21362 | 35828 ft | 474 kts | 271° |
| 2026-05-05 11:58 | 22.95817 | 68.14207 | 35820 ft | 474 kts | 271° |
| 2026-05-05 11:59 | 22.95817 | 68.07046 | 35823 ft | 475 kts | 271° |
| 2026-05-05 11:59 | 22.95815 | 67.99888 | 35817 ft | 475 kts | 271° |
| 2026-05-05 12:00 | 22.95808 | 67.92772 | 35826 ft | 474 kts | 271° |
| 2026-05-05 12:00 | 22.95799 | 67.85619 | 35823 ft | 474 kts | 271° |
| 2026-05-05 12:01 | 22.95813 | 67.78466 | 35823 ft | 474 kts | 271° |
| 2026-05-05 12:01 | 22.95834 | 67.71317 | 35822 ft | 474 kts | 271° |
| 2026-05-05 12:02 | 22.95848 | 67.64216 | 35826 ft | 474 kts | 271° |
| 2026-05-05 12:02 | 22.95857 | 67.57070 | 35822 ft | 474 kts | 271° |
| 2026-05-05 12:03 | 22.95862 | 67.49918 | 35812 ft | 474 kts | 271° |
| 2026-05-05 12:03 | 22.95864 | 67.42768 | 35816 ft | 474 kts | 271° |
| 2026-05-05 12:04 | 22.95863 | 67.35614 | 35817 ft | 474 kts | 271° |
| 2026-05-05 12:04 | 22.95859 | 67.28507 | 35817 ft | 474 kts | 271° |
| 2026-05-05 12:05 | 22.95851 | 67.21348 | 35813 ft | 475 kts | 271° |
| 2026-05-05 12:05 | 22.95840 | 67.14187 | 35813 ft | 475 kts | 271° |
| 2026-05-05 12:06 | 22.95827 | 67.07026 | 35815 ft | 475 kts | 271° |
| 2026-05-05 12:06 | 22.95810 | 66.99865 | 35821 ft | 474 kts | 271° |
| 2026-05-05 12:07 | 22.95804 | 66.92763 | 35815 ft | 473 kts | 271° |
| 2026-05-05 12:07 | 22.95850 | 66.85635 | 35811 ft | 472 kts | 271° |
| 2026-05-05 12:08 | 22.95903 | 66.78511 | 35813 ft | 472 kts | 271° |
| 2026-05-05 12:08 | 22.95946 | 66.71390 | 35815 ft | 472 kts | 271° |
| 2026-05-05 12:09 | 22.95982 | 66.64267 | 35811 ft | 472 kts | 271° |
| 2026-05-05 12:09 | 22.96013 | 66.57188 | 35813 ft | 473 kts | 271° |
| 2026-05-05 12:10 | 22.96041 | 66.50055 | 35816 ft | 473 kts | 271° |
| 2026-05-05 12:10 | 22.96066 | 66.42916 | 35811 ft | 473 kts | 271° |
| 2026-05-05 12:11 | 22.96088 | 66.35768 | 35812 ft | 474 kts | 271° |
| 2026-05-05 12:11 | 22.96107 | 66.28666 | 35817 ft | 474 kts | 271° |
| 2026-05-05 12:12 | 22.96123 | 66.21517 | 35813 ft | 474 kts | 271° |
| 2026-05-05 12:12 | 22.96136 | 66.14364 | 35820 ft | 474 kts | 271° |
| 2026-05-05 12:13 | 22.96145 | 66.07204 | 35816 ft | 474 kts | 271° |
| 2026-05-05 12:13 | 22.96151 | 66.00046 | 35816 ft | 474 kts | 271° |
| 2026-05-05 12:14 | 22.96154 | 65.92938 | 35817 ft | 474 kts | 271° |
| 2026-05-05 12:14 | 22.96154 | 65.85782 | 35817 ft | 474 kts | 271° |
| 2026-05-05 12:15 | 22.96151 | 65.78649 | 35816 ft | 474 kts | 271° |
| 2026-05-05 12:15 | 22.96144 | 65.71645 | 35817 ft | 474 kts | 271° |
| 2026-05-05 12:16 | 22.96134 | 65.64484 | 35822 ft | 474 kts | 271° |
| 2026-05-05 12:16 | 22.96122 | 65.57325 | 35813 ft | 475 kts | 271° |
| 2026-05-05 12:17 | 22.96105 | 65.50165 | 35815 ft | 475 kts | 271° |
| 2026-05-05 12:17 | 22.96086 | 65.43049 | 35819 ft | 475 kts | 271° |
| 2026-05-05 12:18 | 22.96063 | 65.35886 | 35818 ft | 475 kts | 271° |
| 2026-05-05 12:18 | 22.96038 | 65.28723 | 35811 ft | 475 kts | 271° |
| 2026-05-05 12:19 | 22.96009 | 65.21557 | 35817 ft | 475 kts | 271° |
| 2026-05-05 12:19 | 22.95976 | 65.14389 | 35827 ft | 475 kts | 271° |
| 2026-05-05 12:20 | 22.95941 | 65.07273 | 35821 ft | 474 kts | 271° |
| 2026-05-05 12:20 | 22.95903 | 65.00121 | 35821 ft | 474 kts | 271° |
| 2026-05-05 12:21 | 22.95861 | 64.92979 | 35811 ft | 473 kts | 270° |
| 2026-05-05 12:21 | 22.95817 | 64.85848 | 35813 ft | 472 kts | 271° |
| 2026-05-05 12:22 | 22.96210 | 64.78799 | 35822 ft | 471 kts | 277° |
| 2026-05-05 12:22 | 22.96995 | 64.71746 | 35823 ft | 471 kts | 277° |
| 2026-05-05 12:23 | 22.97769 | 64.64681 | 35815 ft | 472 kts | 277° |
| 2026-05-05 12:23 | 22.98521 | 64.57608 | 35820 ft | 472 kts | 277° |
| 2026-05-05 12:24 | 22.99256 | 64.50575 | 35820 ft | 472 kts | 277° |
| 2026-05-05 12:24 | 22.99994 | 64.43494 | 35813 ft | 472 kts | 277° |
| 2026-05-05 12:25 | 23.00729 | 64.36404 | 35814 ft | 473 kts | 277° |
| 2026-05-05 12:25 | 23.01462 | 64.29317 | 35816 ft | 473 kts | 277° |
| 2026-05-05 12:26 | 23.02192 | 64.22223 | 35817 ft | 473 kts | 277° |
| 2026-05-05 12:26 | 23.02915 | 64.15172 | 35816 ft | 473 kts | 277° |
| 2026-05-05 12:27 | 23.03639 | 64.08071 | 35811 ft | 473 kts | 277° |
| 2026-05-05 12:27 | 23.04361 | 64.00970 | 35807 ft | 474 kts | 277° |
| 2026-05-05 12:28 | 23.05080 | 63.93860 | 35815 ft | 474 kts | 277° |
| 2026-05-05 12:28 | 23.05796 | 63.86746 | 35812 ft | 474 kts | 277° |
| 2026-05-05 12:29 | 23.06526 | 63.79677 | 35818 ft | 474 kts | 277° |
| 2026-05-05 12:29 | 23.07275 | 63.72562 | 35807 ft | 474 kts | 277° |
| 2026-05-05 12:30 | 23.08020 | 63.65443 | 35811 ft | 475 kts | 277° |
| 2026-05-05 12:30 | 23.08759 | 63.58317 | 35816 ft | 475 kts | 277° |
| 2026-05-05 12:31 | 23.09489 | 63.51238 | 35817 ft | 475 kts | 277° |
| 2026-05-05 12:31 | 23.10221 | 63.44104 | 35811 ft | 475 kts | 277° |
| 2026-05-05 12:32 | 23.10949 | 63.36976 | 35816 ft | 475 kts | 277° |
| 2026-05-05 12:32 | 23.11674 | 63.29849 | 35814 ft | 475 kts | 276° |
| 2026-05-05 12:33 | 23.12391 | 63.22775 | 35809 ft | 474 kts | 276° |
| 2026-05-05 12:33 | 23.13109 | 63.15653 | 35810 ft | 474 kts | 276° |
| 2026-05-05 12:34 | 23.13824 | 63.08530 | 35811 ft | 474 kts | 276° |
| 2026-05-05 12:34 | 23.14535 | 63.01404 | 35814 ft | 475 kts | 276° |
| 2026-05-05 12:35 | 23.15244 | 62.94274 | 35821 ft | 474 kts | 276° |
| 2026-05-05 12:35 | 23.15949 | 62.87153 | 35813 ft | 474 kts | 276° |
| 2026-05-05 12:36 | 23.16644 | 62.80091 | 35813 ft | 473 kts | 276° |
| 2026-05-05 12:36 | 23.17341 | 62.72993 | 35816 ft | 472 kts | 276° |
| 2026-05-05 12:37 | 23.18032 | 62.65905 | 35809 ft | 472 kts | 276° |
| 2026-05-05 12:37 | 23.18724 | 62.58789 | 36074 ft | 474 kts | 276° |
| 2026-05-05 12:38 | 23.19062 | 62.55289 | 36386 ft | 471 kts | 276° |
| 2026-05-05 12:38 | 23.19403 | 62.51755 | 36679 ft | 469 kts | 276° |
| 2026-05-05 12:38 | 23.19743 | 62.48228 | 36889 ft | 470 kts | 276° |
| 2026-05-05 12:38 | 23.20083 | 62.44696 | 37079 ft | 470 kts | 276° |
| 2026-05-05 12:39 | 23.20422 | 62.41162 | 37296 ft | 470 kts | 276° |
| 2026-05-05 12:39 | 23.20759 | 62.37634 | 37543 ft | 469 kts | 276° |
| 2026-05-05 12:39 | 23.21095 | 62.34114 | 37724 ft | 469 kts | 276° |
| 2026-05-05 12:39 | 23.21431 | 62.30590 | 37761 ft | 468 kts | 276° |
| 2026-05-05 12:40 | 23.22090 | 62.23638 | 37802 ft | 462 kts | 276° |
| 2026-05-05 12:40 | 23.22744 | 62.16714 | 37801 ft | 460 kts | 276° |
| 2026-05-05 12:41 | 23.23393 | 62.09797 | 37812 ft | 460 kts | 276° |
| 2026-05-05 12:41 | 23.24041 | 62.02877 | 37810 ft | 461 kts | 276° |
| 2026-05-05 12:42 | 23.24681 | 61.95992 | 37822 ft | 461 kts | 276° |
| 2026-05-05 12:42 | 23.25279 | 61.89539 | 37806 ft | 462 kts | 276° |
| 2026-05-05 12:43 | 23.25862 | 61.83222 | 37804 ft | 462 kts | 276° |
| 2026-05-05 12:43 | 23.26500 | 61.76274 | 37802 ft | 462 kts | 276° |
| 2026-05-05 12:44 | 23.27134 | 61.69330 | 37803 ft | 461 kts | 276° |
| 2026-05-05 12:44 | 23.27761 | 61.62435 | 37807 ft | 461 kts | 276° |
| 2026-05-05 12:45 | 23.28309 | 61.56372 | 37807 ft | 461 kts | 276° |
| 2026-05-05 12:45 | 23.28718 | 61.51838 | 37800 ft | 461 kts | 276° |
| 2026-05-05 12:46 | 23.29340 | 61.44907 | 37800 ft | 460 kts | 276° |
| 2026-05-05 12:46 | 23.29955 | 61.38022 | 37800 ft | 460 kts | 276° |
| 2026-05-05 12:47 | 23.30571 | 61.31091 | 37804 ft | 460 kts | 275° |
| 2026-05-05 12:47 | 23.31345 | 61.24180 | 37799 ft | 460 kts | 281° |
| 2026-05-05 12:48 | 23.33162 | 61.17506 | 37796 ft | 461 kts | 290° |
| 2026-05-05 12:48 | 23.35507 | 61.11055 | 37807 ft | 462 kts | 290° |
| 2026-05-05 12:49 | 23.37868 | 61.04546 | 37798 ft | 462 kts | 290° |
| 2026-05-05 12:49 | 23.40207 | 60.98030 | 37796 ft | 462 kts | 290° |
| 2026-05-05 12:50 | 23.42535 | 60.91503 | 37797 ft | 462 kts | 290° |
| 2026-05-05 12:50 | 23.44841 | 60.85022 | 37796 ft | 462 kts | 290° |
| 2026-05-05 12:51 | 23.47160 | 60.78493 | 37797 ft | 462 kts | 290° |
| 2026-05-05 12:51 | 23.49475 | 60.71964 | 37792 ft | 462 kts | 290° |
| 2026-05-05 12:52 | 23.51788 | 60.65435 | 37787 ft | 462 kts | 290° |
| 2026-05-05 12:52 | 23.54085 | 60.58942 | 37791 ft | 462 kts | 290° |
| 2026-05-05 12:53 | 23.56394 | 60.52404 | 37793 ft | 462 kts | 290° |
| 2026-05-05 12:53 | 23.58699 | 60.45866 | 37774 ft | 462 kts | 290° |
| 2026-05-05 12:54 | 23.62149 | 60.36064 | 37782 ft | 461 kts | 289° |
| 2026-05-05 12:55 | 23.64427 | 60.29580 | 37780 ft | 461 kts | 289° |
| 2026-05-05 12:55 | 23.66720 | 60.23040 | 37781 ft | 461 kts | 289° |
| 2026-05-05 12:56 | 23.69010 | 60.16501 | 37775 ft | 461 kts | 289° |
| 2026-05-05 12:56 | 23.71298 | 60.09959 | 37787 ft | 462 kts | 289° |
| 2026-05-05 12:57 | 23.73567 | 60.03457 | 37781 ft | 462 kts | 289° |
| 2026-05-05 12:57 | 23.75850 | 59.96909 | 37777 ft | 461 kts | 289° |
| 2026-05-05 12:58 | 23.78128 | 59.90363 | 37768 ft | 461 kts | 289° |
| 2026-05-05 12:58 | 23.80401 | 59.83820 | 37771 ft | 461 kts | 289° |
| 2026-05-05 12:59 | 23.82656 | 59.77320 | 37765 ft | 461 kts | 289° |
| 2026-05-05 12:59 | 23.84923 | 59.70775 | 37773 ft | 461 kts | 289° |
| 2026-05-05 13:00 | 23.88320 | 59.60951 | 37770 ft | 461 kts | 289° |
| 2026-05-05 13:01 | 23.92825 | 59.47881 | 37765 ft | 461 kts | 289° |
| 2026-05-05 13:01 | 23.95080 | 59.41325 | 37763 ft | 461 kts | 289° |
| 2026-05-05 13:02 | 23.97333 | 59.34767 | 37769 ft | 461 kts | 289° |
| 2026-05-05 13:02 | 23.99581 | 59.28209 | 37764 ft | 460 kts | 289° |
| 2026-05-05 13:03 | 24.01810 | 59.21698 | 37764 ft | 460 kts | 289° |
| 2026-05-05 13:03 | 24.04052 | 59.15138 | 37756 ft | 460 kts | 289° |
| 2026-05-05 13:04 | 24.06291 | 59.08574 | 37765 ft | 460 kts | 289° |
| 2026-05-05 13:04 | 24.08527 | 59.02011 | 37741 ft | 460 kts | 289° |
| 2026-05-05 13:05 | 24.10743 | 58.95498 | 37757 ft | 459 kts | 289° |
| 2026-05-05 13:05 | 24.12968 | 58.88945 | 37762 ft | 459 kts | 288° |
| 2026-05-05 13:06 | 24.15189 | 58.82395 | 37752 ft | 459 kts | 288° |
| 2026-05-05 13:06 | 24.17406 | 58.75844 | 37755 ft | 459 kts | 288° |
| 2026-05-05 13:07 | 24.19619 | 58.69290 | 37752 ft | 458 kts | 288° |
| 2026-05-05 13:07 | 24.21515 | 58.62699 | 37752 ft | 457 kts | 284° |
| 2026-05-05 13:08 | 24.23256 | 58.55997 | 37748 ft | 457 kts | 284° |
| 2026-05-05 13:08 | 24.24998 | 58.49311 | 37750 ft | 456 kts | 284° |
| 2026-05-05 13:09 | 24.26767 | 58.42626 | 37744 ft | 456 kts | 284° |
| 2026-05-05 13:09 | 24.28533 | 58.35996 | 37745 ft | 456 kts | 284° |
| 2026-05-05 13:10 | 24.30310 | 58.29323 | 37744 ft | 456 kts | 284° |
| 2026-05-05 13:10 | 24.32082 | 58.22649 | 37749 ft | 456 kts | 284° |
| 2026-05-05 13:11 | 24.33853 | 58.15968 | 37754 ft | 456 kts | 284° |
| 2026-05-05 13:11 | 24.35608 | 58.09327 | 37744 ft | 457 kts | 284° |
| 2026-05-05 13:12 | 24.37375 | 58.02634 | 37749 ft | 457 kts | 284° |
| 2026-05-05 13:12 | 24.39136 | 57.95946 | 37747 ft | 456 kts | 284° |
| 2026-05-05 13:13 | 24.40882 | 57.89306 | 37741 ft | 456 kts | 284° |
| 2026-05-05 13:13 | 24.42635 | 57.82624 | 37744 ft | 455 kts | 284° |
| 2026-05-05 13:14 | 24.44383 | 57.75947 | 37748 ft | 455 kts | 284° |
| 2026-05-05 13:14 | 24.46128 | 57.69267 | 37751 ft | 455 kts | 284° |
| 2026-05-05 13:15 | 24.47873 | 57.62580 | 37749 ft | 456 kts | 284° |
| 2026-05-05 13:15 | 24.49602 | 57.55936 | 37754 ft | 456 kts | 284° |
| 2026-05-05 13:16 | 24.51342 | 57.49240 | 37754 ft | 456 kts | 284° |
| 2026-05-05 13:16 | 24.53080 | 57.42535 | 37754 ft | 457 kts | 284° |
| 2026-05-05 13:17 | 24.54817 | 57.35825 | 37753 ft | 457 kts | 284° |
| 2026-05-05 13:17 | 24.56540 | 57.29154 | 37758 ft | 457 kts | 284° |
| 2026-05-05 13:18 | 24.58272 | 57.22431 | 37755 ft | 458 kts | 284° |
| 2026-05-05 13:18 | 24.60004 | 57.15699 | 37762 ft | 458 kts | 284° |
| 2026-05-05 13:19 | 24.61733 | 57.08965 | 37754 ft | 458 kts | 284° |
| 2026-05-05 13:19 | 24.63449 | 57.02269 | 37770 ft | 458 kts | 283° |
| 2026-05-05 13:20 | 24.65172 | 56.95528 | 37766 ft | 458 kts | 284° |
| 2026-05-05 13:20 | 24.66890 | 56.88799 | 37762 ft | 457 kts | 284° |
| 2026-05-05 13:21 | 24.68601 | 56.82079 | 37764 ft | 456 kts | 283° |
| 2026-05-05 13:21 | 24.70293 | 56.75424 | 37765 ft | 455 kts | 283° |
| 2026-05-05 13:22 | 24.71992 | 56.68722 | 37773 ft | 455 kts | 283° |
| 2026-05-05 13:22 | 24.73687 | 56.62027 | 37786 ft | 454 kts | 283° |
| 2026-05-05 13:23 | 24.75379 | 56.55326 | 37780 ft | 455 kts | 283° |
| 2026-05-05 13:23 | 24.77059 | 56.48665 | 37796 ft | 455 kts | 283° |
| 2026-05-05 13:24 | 24.78747 | 56.41956 | 37785 ft | 455 kts | 283° |
| 2026-05-05 13:24 | 24.80200 | 56.36171 | 37784 ft | 454 kts | 283° |
| 2026-05-05 13:25 | 24.81879 | 56.29468 | 37785 ft | 454 kts | 283° |
| 2026-05-05 13:25 | 24.83265 | 56.22755 | 37782 ft | 452 kts | 277° |
| 2026-05-05 13:26 | 24.84162 | 56.15916 | 37773 ft | 451 kts | 276° |
| 2026-05-05 13:26 | 24.84904 | 56.10236 | 37778 ft | 451 kts | 277° |
| 2026-05-05 13:27 | 24.85812 | 56.03396 | 37776 ft | 452 kts | 277° |
| 2026-05-05 13:27 | 24.86879 | 55.95439 | 37765 ft | 452 kts | 277° |
| 2026-05-05 13:28 | 24.87798 | 55.88589 | 37778 ft | 452 kts | 277° |
| 2026-05-05 13:28 | 24.88713 | 55.81737 | 37761 ft | 452 kts | 277° |
| 2026-05-05 13:29 | 24.89469 | 55.76052 | 37746 ft | 451 kts | 277° |
| 2026-05-05 13:29 | 24.90521 | 55.68117 | 37752 ft | 450 kts | 277° |
| 2026-05-05 13:30 | 24.91421 | 55.61301 | 37747 ft | 449 kts | 277° |
| 2026-05-05 13:30 | 24.92166 | 55.55640 | 37748 ft | 449 kts | 277° |
| 2026-05-05 13:31 | 24.93059 | 55.48833 | 37743 ft | 449 kts | 276° |
| 2026-05-05 13:31 | 24.93949 | 55.42024 | 37750 ft | 449 kts | 276° |
| 2026-05-05 13:32 | 24.94979 | 55.34108 | 37747 ft | 450 kts | 276° |
| 2026-05-05 13:32 | 24.95721 | 55.28389 | 37774 ft | 450 kts | 276° |
| 2026-05-05 13:33 | 24.96597 | 55.21609 | 37784 ft | 450 kts | 276° |
| 2026-05-05 13:33 | 24.97477 | 55.14777 | 37776 ft | 450 kts | 276° |
| 2026-05-05 13:34 | 24.98353 | 55.07953 | 37772 ft | 450 kts | 276° |
| 2026-05-05 13:34 | 24.99226 | 55.01128 | 37766 ft | 449 kts | 276° |
| 2026-05-05 13:35 | 25.00089 | 54.94355 | 37758 ft | 449 kts | 276° |
| 2026-05-05 13:35 | 25.00953 | 54.87543 | 37753 ft | 449 kts | 276° |
| 2026-05-05 13:36 | 25.01404 | 54.80707 | 37745 ft | 446 kts | 267° |
| 2026-05-05 13:36 | 25.01106 | 54.73874 | 37746 ft | 446 kts | 266° |
| 2026-05-05 13:37 | 25.00822 | 54.67084 | 37749 ft | 447 kts | 266° |
| 2026-05-05 13:37 | 25.00594 | 54.61327 | 37748 ft | 447 kts | 266° |
| 2026-05-05 13:38 | 25.00329 | 54.54511 | 37749 ft | 447 kts | 266° |
| 2026-05-05 13:38 | 25.00051 | 54.47626 | 37748 ft | 448 kts | 266° |
| 2026-05-05 13:39 | 24.99769 | 54.40818 | 37762 ft | 448 kts | 266° |
| 2026-05-05 13:39 | 24.99484 | 54.33965 | 37750 ft | 447 kts | 266° |
| 2026-05-05 13:40 | 24.99197 | 54.27119 | 37744 ft | 446 kts | 266° |
| 2026-05-05 13:40 | 24.98909 | 54.20292 | 37746 ft | 446 kts | 266° |
| 2026-05-05 13:41 | 24.98619 | 54.13518 | 37747 ft | 445 kts | 266° |
| 2026-05-05 13:41 | 24.98325 | 54.06712 | 37748 ft | 444 kts | 266° |
| 2026-05-05 13:42 | 24.98027 | 53.99915 | 37747 ft | 444 kts | 266° |
| 2026-05-05 13:42 | 24.97727 | 53.93116 | 37752 ft | 444 kts | 266° |
| 2026-05-05 13:43 | 24.97424 | 53.86316 | 37754 ft | 444 kts | 266° |
| 2026-05-05 13:43 | 24.97120 | 53.79563 | 37753 ft | 444 kts | 266° |
| 2026-05-05 13:44 | 24.96810 | 53.72762 | 37750 ft | 445 kts | 266° |
| 2026-05-05 13:44 | 24.96497 | 53.65962 | 37726 ft | 443 kts | 266° |
| 2026-05-05 13:45 | 24.96341 | 53.62577 | 37478 ft | 442 kts | 266° |
| 2026-05-05 13:45 | 24.96183 | 53.59191 | 37048 ft | 444 kts | 266° |
| 2026-05-05 13:45 | 24.96023 | 53.55781 | 36566 ft | 447 kts | 266° |
| 2026-05-05 13:45 | 24.95864 | 53.52399 | 36111 ft | 449 kts | 266° |
| 2026-05-05 13:46 | 24.95701 | 53.48953 | 35646 ft | 451 kts | 266° |
| 2026-05-05 13:46 | 24.95537 | 53.45495 | 35185 ft | 453 kts | 266° |
| 2026-05-05 13:46 | 24.95372 | 53.42023 | 34743 ft | 454 kts | 266° |
| 2026-05-05 13:46 | 24.95205 | 53.38540 | 34289 ft | 456 kts | 266° |
| 2026-05-05 13:47 | 24.95037 | 53.35049 | 33829 ft | 457 kts | 266° |
| 2026-05-05 13:47 | 24.94867 | 53.31545 | 33279 ft | 458 kts | 266° |
| 2026-05-05 13:47 | 24.94696 | 53.28025 | 32234 ft | 461 kts | 266° |
| 2026-05-05 13:47 | 24.94524 | 53.24493 | 31236 ft | 462 kts | 266° |
| 2026-05-05 13:48 | 24.94352 | 53.20996 | 30258 ft | 465 kts | 266° |
| 2026-05-05 13:48 | 24.94179 | 53.17496 | 29457 ft | 461 kts | 266° |
| 2026-05-05 13:48 | 24.94005 | 53.13979 | 28620 ft | 458 kts | 266° |
| 2026-05-05 13:48 | 24.93831 | 53.10490 | 27862 ft | 454 kts | 266° |
| 2026-05-05 13:49 | 24.93658 | 53.07032 | 27148 ft | 451 kts | 266° |
| 2026-05-05 13:49 | 24.93486 | 53.03598 | 26458 ft | 447 kts | 266° |
| 2026-05-05 13:49 | 24.93313 | 53.00185 | 25779 ft | 445 kts | 266° |
| 2026-05-05 13:50 | 24.92957 | 52.93179 | 24378 ft | 441 kts | 266° |
| 2026-05-05 13:50 | 24.92787 | 52.89855 | 23725 ft | 440 kts | 267° |
| 2026-05-05 13:50 | 24.92613 | 52.86489 | 23000 ft | 440 kts | 267° |
| 2026-05-05 13:50 | 24.92440 | 52.83130 | 22265 ft | 438 kts | 267° |
| 2026-05-05 13:51 | 24.92267 | 52.79787 | 21581 ft | 436 kts | 267° |
| 2026-05-05 13:51 | 24.92094 | 52.76467 | 20925 ft | 433 kts | 267° |
| 2026-05-05 13:51 | 24.91921 | 52.73169 | 20289 ft | 430 kts | 267° |
| 2026-05-05 13:51 | 24.91749 | 52.69894 | 19660 ft | 427 kts | 267° |
| 2026-05-05 13:52 | 24.91577 | 52.66634 | 19031 ft | 425 kts | 267° |
| 2026-05-05 13:52 | 24.91408 | 52.63435 | 18391 ft | 424 kts | 267° |
| 2026-05-05 13:52 | 24.91235 | 52.60200 | 17720 ft | 422 kts | 267° |
| 2026-05-05 13:52 | 24.91063 | 52.56976 | 17039 ft | 420 kts | 267° |
| 2026-05-05 13:53 | 24.90890 | 52.53776 | 16394 ft | 417 kts | 268° |
| 2026-05-05 13:53 | 24.90719 | 52.50597 | 15800 ft | 414 kts | 268° |
| 2026-05-05 13:53 | 24.90548 | 52.47441 | 15178 ft | 412 kts | 268° |
| 2026-05-05 13:53 | 24.90378 | 52.44304 | 14570 ft | 410 kts | 268° |
| 2026-05-05 13:54 | 24.90208 | 52.41184 | 14009 ft | 407 kts | 268° |
| 2026-05-05 13:54 | 24.90040 | 52.38116 | 13396 ft | 406 kts | 269° |
| 2026-05-05 13:54 | 24.89871 | 52.35029 | 12824 ft | 401 kts | 269° |
| 2026-05-05 13:54 | 24.89703 | 52.31982 | 12283 ft | 396 kts | 269° |
| 2026-05-05 13:55 | 24.89536 | 52.28965 | 11742 ft | 392 kts | 269° |
| 2026-05-05 13:55 | 24.89371 | 52.25979 | 11222 ft | 387 kts | 269° |
| 2026-05-05 13:55 | 24.89208 | 52.23069 | 10976 ft | 375 kts | 269° |
| 2026-05-05 13:55 | 24.89050 | 52.20245 | 10775 ft | 363 kts | 269° |
| 2026-05-05 13:56 | 24.88897 | 52.17517 | 10611 ft | 351 kts | 269° |
| 2026-05-05 13:56 | 24.88749 | 52.14876 | 10458 ft | 340 kts | 269° |
| 2026-05-05 13:56 | 24.88607 | 52.12357 | 10317 ft | 329 kts | 269° |
| 2026-05-05 13:56 | 24.88467 | 52.09884 | 10184 ft | 319 kts | 269° |
| 2026-05-05 13:57 | 24.88430 | 52.07512 | 10028 ft | 301 kts | 281° |
| 2026-05-05 13:57 | 24.89073 | 52.05391 | 9808 ft | 287 kts | 298° |
| 2026-05-05 13:57 | 24.89954 | 52.03427 | 9460 ft | 286 kts | 297° |
| 2026-05-05 13:57 | 24.90822 | 52.01460 | 9095 ft | 285 kts | 297° |
| 2026-05-05 13:58 | 24.91673 | 51.99519 | 8745 ft | 285 kts | 297° |
| 2026-05-05 13:58 | 24.92533 | 51.97554 | 8404 ft | 284 kts | 297° |
| 2026-05-05 13:58 | 24.93389 | 51.95594 | 8048 ft | 284 kts | 297° |
| 2026-05-05 13:58 | 24.94234 | 51.93655 | 7710 ft | 283 kts | 297° |
| 2026-05-05 13:59 | 24.95935 | 51.89747 | 7015 ft | 283 kts | 297° |
| 2026-05-05 13:59 | 24.96783 | 51.87795 | 6674 ft | 280 kts | 297° |
| 2026-05-05 14:00 | 24.98400 | 51.84065 | 6000 ft | 268 kts | 298° |
| 2026-05-05 14:00 | 24.99211 | 51.82199 | 5696 ft | 271 kts | 298° |
| 2026-05-05 14:00 | 25.00024 | 51.80324 | 5403 ft | 271 kts | 297° |
| 2026-05-05 14:00 | 25.00836 | 51.78453 | 5113 ft | 270 kts | 297° |
| 2026-05-05 14:01 | 25.01625 | 51.76627 | 4823 ft | 255 kts | 297° |
| 2026-05-05 14:01 | 25.02358 | 51.74932 | 4585 ft | 235 kts | 297° |
| 2026-05-05 14:01 | 25.03065 | 51.73383 | 4361 ft | 216 kts | 308° |
| 2026-05-05 14:01 | 25.04142 | 51.72397 | 4221 ft | 199 kts | 333° |
| 2026-05-05 14:02 | 25.05341 | 51.71702 | 3978 ft | 190 kts | 335° |
| 2026-05-05 14:02 | 25.06500 | 51.71112 | 3722 ft | 176 kts | 338° |
| 2026-05-05 14:02 | 25.07575 | 51.70614 | 3503 ft | 167 kts | 339° |
| 2026-05-05 14:02 | 25.08634 | 51.70137 | 3309 ft | 161 kts | 340° |
| 2026-05-05 14:03 | 25.09657 | 51.69684 | 3106 ft | 156 kts | 340° |
| 2026-05-05 14:03 | 25.10669 | 51.69237 | 2933 ft | 157 kts | 340° |
| 2026-05-05 14:03 | 25.11680 | 51.68793 | 2732 ft | 155 kts | 341° |
| 2026-05-05 14:03 | 25.12670 | 51.68356 | 2535 ft | 153 kts | 341° |
| 2026-05-05 14:04 | 25.13662 | 51.67917 | 2358 ft | 154 kts | 340° |
| 2026-05-05 14:04 | 25.14657 | 51.67480 | 2171 ft | 152 kts | 340° |
| 2026-05-05 14:04 | 25.15637 | 51.67050 | 1966 ft | 152 kts | 339° |
| 2026-05-05 14:04 | 25.16605 | 51.66623 | 1779 ft | 151 kts | 339° |
| 2026-05-05 14:05 | 25.17580 | 51.66190 | 1611 ft | 152 kts | 339° |
| 2026-05-05 14:05 | 25.18561 | 51.65757 | 1416 ft | 151 kts | 340° |
| 2026-05-05 14:05 | 25.19529 | 51.65332 | 1213 ft | 150 kts | 339° |
| 2026-05-05 14:05 | 25.20495 | 51.64906 | 1017 ft | 149 kts | 340° |
| 2026-05-05 14:06 | 25.21455 | 51.64480 | 853 ft | 149 kts | 341° |
| 2026-05-05 14:06 | 25.22418 | 51.64055 | 674 ft | 148 kts | 340° |
| 2026-05-05 14:06 | 25.23360 | 51.63638 | 509 ft | 144 kts | 341° |
| 2026-05-05 14:06 | 25.24284 | 51.63227 | 315 ft | 142 kts | 340° |
| 2026-05-05 14:07 | 25.25196 | 51.62821 | 173 ft | 142 kts | 340° |
| 2026-05-05 14:07 | 25.26115 | 51.62415 | 41 ft | 141 kts | 341° |
| 2026-05-05 14:07 | 25.26908 | 51.62076 | 29 ft | 93 kts | 338° |
| 2026-05-05 14:07 | 25.27409 | 51.61856 | 32 ft | 60 kts | 338° |
| 2026-05-05 14:08 | 25.27587 | 51.61758 | 31 ft | 20 kts | 303° |
| 2026-05-05 14:08 | 25.27586 | 51.61674 | 32 ft | 0 kts | 252° |
| 2026-05-05 14:09 | 25.27579 | 51.61651 | 32 ft | 13 kts | 252° |
| 2026-05-05 14:09 | 25.27555 | 51.61572 | 33 ft | 3 kts | 249° |
| 2026-05-05 14:09 | 25.27546 | 51.61546 | 34 ft | 4 kts | 249° |
| 2026-05-05 14:09 | 25.27537 | 51.61520 | 34 ft | 4 kts | 249° |
| 2026-05-05 14:10 | 25.27527 | 51.61493 | 34 ft | 4 kts | 249° |
| 2026-05-05 14:10 | 25.27517 | 51.61464 | 34 ft | 4 kts | 249° |
| 2026-05-05 14:10 | 25.27506 | 51.61431 | 34 ft | 5 kts | 249° |
| 2026-05-05 14:10 | 25.27471 | 51.61334 | 35 ft | 30 kts | 245° |
| 2026-05-05 14:11 | 25.27401 | 51.61157 | 35 ft | 24 kts | 248° |
| 2026-05-05 14:11 | 25.27361 | 51.61043 | 35 ft | 12 kts | 249° |
| 2026-05-05 14:11 | 25.27330 | 51.60958 | 35 ft | 12 kts | 249° |
| 2026-05-05 14:11 | 25.27283 | 51.60830 | 35 ft | 24 kts | 248° |
| 2026-05-05 14:12 | 25.27237 | 51.60703 | 35 ft | 17 kts | 248° |
| 2026-05-05 14:12 | 25.27191 | 51.60579 | 35 ft | 17 kts | 248° |
| 2026-05-05 14:12 | 25.27143 | 51.60444 | 35 ft | 26 kts | 248° |
| 2026-05-05 14:12 | 25.27069 | 51.60246 | 34 ft | 30 kts | 242° |
| 2026-05-05 14:13 | 25.26922 | 51.60244 | 34 ft | 23 kts | 159° |
| 2026-05-05 14:13 | 25.26844 | 51.60294 | 34 ft | 7 kts | 107° |
| 2026-05-05 14:13 | 25.26859 | 51.60343 | 34 ft | 7 kts | 66° |
| 2026-05-05 14:13 | 25.26872 | 51.60378 | 35 ft | 0 kts | 68° |